Time;durP1;ratioP1;P1;durP2;ratioP2;P2;SDS_P1;SDS_P2;PMS_P1;PMS_P2;Temp;Humidity;BMP_temperature;BMP_pressure;BME280_temperature;BME280_humidity;BME280_pressure;Samples;Min_cycle;Max_cycle;Signal;HPM_P1;HPM_P2
2022/03/09 00:01:49;;;;;;;67.70;35.70;;;;;;;8.86;45.56;101353.94;5048370;28;20045;-62
2022/03/09 00:04:17;;;;;;;63.95;35.60;;;;;;;9.00;45.47;101349.41;5040752;28;20049;-61
2022/03/09 00:06:44;;;;;;;61.10;35.50;;;;;;;9.18;44.81;101348.72;5043745;28;20083;-62
2022/03/09 00:09:13;;;;;;;65.80;35.63;;;;;;;9.26;44.83;101352.78;5028946;28;20049;-62
2022/03/09 00:11:41;;;;;;;69.25;36.22;;;;;;;9.30;44.67;101348.31;5034784;28;20049;-62
2022/03/09 00:14:08;;;;;;;66.68;35.10;;;;;;;9.24;44.77;101346.75;5024103;28;20049;-62
2022/03/09 00:16:36;;;;;;;63.65;34.92;;;;;;;9.39;44.59;101341.91;5035753;28;20068;-61
2022/03/09 00:19:09;;;;;;;60.47;34.92;;;;;;;9.40;44.31;101356.47;5044846;28;20056;-60
2022/03/09 00:21:36;;;;;;;69.22;36.53;;;;;;;9.53;44.46;101347.53;5050449;28;20041;-62
2022/03/09 00:24:04;;;;;;;69.10;37.20;;;;;;;9.50;43.97;101356.38;5044063;28;20049;-61
2022/03/09 00:26:31;;;;;;;70.03;36.13;;;;;;;9.43;44.42;101353.16;5049103;28;20068;-62
2022/03/09 00:28:58;;;;;;;64.63;37.03;;;;;;;9.44;44.59;101352.03;5046106;28;20069;-61
2022/03/09 00:31:26;;;;;;;65.03;35.58;;;;;;;9.49;44.33;101361.06;5039833;28;20507;-61
2022/03/09 00:33:53;;;;;;;64.68;35.38;;;;;;;9.18;44.77;101365.22;5052407;28;20048;-62
2022/03/09 00:36:21;;;;;;;59.60;35.28;;;;;;;8.94;45.51;101364.31;5034002;28;20057;-61
2022/03/09 00:38:48;;;;;;;62.50;35.55;;;;;;;9.02;45.32;101359.03;5047348;28;20052;-61
2022/03/09 00:41:15;;;;;;;67.22;35.60;;;;;;;9.14;45.21;101361.38;5048479;28;20053;-62
2022/03/09 00:43:43;;;;;;;66.63;35.45;;;;;;;9.28;44.95;101365.13;5051441;28;20060;-61
2022/03/09 00:46:10;;;;;;;61.30;34.17;;;;;;;9.33;44.92;101367.81;5048220;28;20064;-61
2022/03/09 00:48:39;;;;;;;62.55;34.08;;;;;;;9.36;44.45;101364.50;5047070;28;20057;-62
2022/03/09 00:51:07;;;;;;;63.03;35.13;;;;;;;9.56;44.18;101364.28;5050730;28;20064;-61
2022/03/09 00:53:38;;;;;;;63.72;35.20;;;;;;;9.32;44.47;101370.84;5026590;28;20075;-61
2022/03/09 00:56:06;;;;;;;63.60;34.90;;;;;;;9.44;44.45;101385.88;5038512;28;20080;-62
2022/03/09 00:58:34;;;;;;;67.22;35.67;;;;;;;9.57;44.08;101381.63;5052870;28;20049;-62
2022/03/09 01:01:02;;;;;;;65.18;33.72;;;;;;;9.48;44.31;101386.94;5037779;28;20081;-61
2022/03/09 01:03:29;;;;;;;60.90;33.35;;;;;;;9.52;44.39;101378.91;5050872;28;20049;-61
2022/03/09 01:05:57;;;;;;;61.13;33.97;;;;;;;9.54;44.02;101384.94;5032515;28;20049;-64
2022/03/09 01:08:24;;;;;;;62.10;33.92;;;;;;;9.39;44.19;101391.41;5049232;28;20057;-61
2022/03/09 01:10:51;;;;;;;60.17;33.30;;;;;;;9.40;44.21;101387.53;5048954;28;20055;-62
2022/03/09 01:13:19;;;;;;;57.88;31.75;;;;;;;9.58;44.07;101386.00;5046837;28;20049;-61
2022/03/09 01:15:46;;;;;;;55.90;32.42;;;;;;;9.46;44.25;101385.56;5057132;28;20041;-61
2022/03/09 01:18:13;;;;;;;58.50;32.08;;;;;;;9.40;44.40;101392.22;5051054;28;20060;-61
2022/03/09 01:20:44;;;;;;;56.88;31.45;;;;;;;9.44;44.27;101383.13;5039021;28;20052;-61
2022/03/09 01:23:11;;;;;;;62.15;31.40;;;;;;;9.45;44.53;101392.97;5057009;28;20060;-61
2022/03/09 01:25:38;;;;;;;58.58;33.20;;;;;;;9.49;44.34;101387.72;5044525;28;20053;-61
2022/03/09 01:28:05;;;;;;;61.30;31.60;;;;;;;9.16;45.07;101386.66;5048329;28;20378;-61
2022/03/09 01:30:33;;;;;;;52.80;29.85;;;;;;;9.40;44.92;101381.22;5051708;28;20404;-61
2022/03/09 01:33:00;;;;;;;53.25;30.73;;;;;;;9.47;45.11;101387.19;5047974;28;20064;-61
2022/03/09 01:35:28;;;;;;;58.08;31.05;;;;;;;9.51;45.08;101389.09;5050207;28;20050;-61
2022/03/09 01:37:55;;;;;;;54.28;29.85;;;;;;;9.48;45.23;101384.19;5042854;28;20388;-61
2022/03/09 01:40:22;;;;;;;53.22;29.90;;;;;;;9.45;45.68;101387.50;5055182;28;20060;-60
2022/03/09 01:42:51;;;;;;;55.10;29.80;;;;;;;9.71;45.41;101385.31;5044264;28;20048;-61
2022/03/09 01:45:20;;;;;;;55.70;31.23;;;;;;;9.65;45.59;101379.06;5054235;28;20052;-62
2022/03/09 01:47:48;;;;;;;56.20;31.27;;;;;;;9.64;45.77;101379.34;5076242;28;20507;-62
2022/03/09 01:50:15;;;;;;;54.30;29.15;;;;;;;9.67;45.43;101381.50;5056445;28;20060;-62
2022/03/09 01:52:45;;;;;;;51.00;28.15;;;;;;;9.54;46.20;101376.69;5056191;28;20071;-62
2022/03/09 01:55:13;;;;;;;52.90;27.80;;;;;;;9.33;46.93;101375.25;5033235;28;20049;-61
2022/03/09 01:57:41;;;;;;;48.58;26.73;;;;;;;9.36;47.53;101370.00;5050743;28;20527;-61
2022/03/09 02:00:09;;;;;;;51.15;27.73;;;;;;;9.43;47.65;101375.16;5041386;28;20064;-61
2022/03/09 02:02:37;;;;;;;46.42;26.63;;;;;;;9.40;47.67;101367.47;5013463;28;20056;-60
2022/03/09 02:05:05;;;;;;;48.78;26.42;;;;;;;9.28;48.85;101367.03;5042380;28;20778;-66
2022/03/09 02:10:21;;;;;;;46.20;23.52;;;;;;;9.44;49.59;101369.38;5041898;28;20071;-65
2022/03/09 02:12:48;;;;;;;50.67;23.65;;;;;;;9.33;50.73;101369.75;5055483;28;20063;-65
2022/03/09 02:15:16;;;;;;;39.83;22.92;;;;;;;9.23;51.57;101362.41;5052193;28;20049;-65
2022/03/09 02:17:43;;;;;;;35.22;21.27;;;;;;;9.21;52.83;101367.38;5046876;28;20060;-66
2022/03/09 02:20:10;;;;;;;41.40;21.63;;;;;;;9.37;52.82;101360.63;5055988;28;20048;-65
2022/03/09 02:22:40;;;;;;;32.78;20.02;;;;;;;9.37;54.35;101368.88;5028145;28;20038;-65
2022/03/09 02:25:13;;;;;;;35.92;19.70;;;;;;;9.35;55.19;101365.59;5055415;28;20048;-64
2022/03/09 02:27:41;;;;;;;31.55;18.98;;;;;;;9.40;55.65;101364.72;5050689;28;20053;-65
2022/03/09 02:30:13;;;;;;;34.38;18.63;;;;;;;9.49;55.66;101365.72;5038178;28;20068;-66
2022/03/09 02:32:42;;;;;;;33.33;20.00;;;;;;;9.54;55.40;101366.50;5038085;28;20056;-65
2022/03/09 02:35:10;;;;;;;32.38;20.35;;;;;;;9.45;55.79;101367.44;5043680;28;20508;-66
2022/03/09 02:37:41;;;;;;;34.40;19.85;;;;;;;9.50;55.68;101375.63;5030091;28;20069;-65
2022/03/09 02:40:10;;;;;;;32.30;19.02;;;;;;;9.43;56.41;101372.41;5056365;28;20452;-65
2022/03/09 02:42:38;;;;;;;32.00;18.13;;;;;;;9.36;57.21;101369.19;5052917;28;20060;-65
2022/03/09 02:45:11;;;;;;;31.38;17.63;;;;;;;9.41;57.50;101371.88;5041077;28;20058;-65
2022/03/09 02:47:43;;;;;;;28.45;16.73;;;;;;;9.43;58.36;101373.19;5039519;28;20064;-65
2022/03/09 02:50:15;;;;;;;27.95;15.93;;;;;;;9.54;58.50;101373.94;5044432;28;20049;-65
2022/03/09 02:52:44;;;;;;;26.85;16.70;;;;;;;9.62;58.07;101374.13;5054084;28;20056;-65
2022/03/09 02:55:12;;;;;;;25.00;15.23;;;;;;;9.69;58.32;101368.28;5054266;28;20492;-65
2022/03/09 02:57:41;;;;;;;29.17;15.70;;;;;;;9.69;58.70;101374.59;5036818;28;20160;-67
2022/03/09 03:00:09;;;;;;;27.15;16.40;;;;;;;9.45;59.11;101373.75;5036897;28;20048;-65
2022/03/09 03:02:37;;;;;;;25.77;15.80;;;;;;;9.47;59.32;101379.78;5038636;28;20049;-66
2022/03/09 03:05:06;;;;;;;25.42;15.35;;;;;;;9.51;59.31;101382.75;5041319;28;20060;-62
2022/03/09 03:07:34;;;;;;;22.58;14.38;;;;;;;9.47;60.02;101384.44;5037871;28;20056;-65
2022/03/09 03:10:03;;;;;;;21.52;14.80;;;;;;;9.54;60.22;101388.50;5044074;28;20501;-61
2022/03/09 03:12:31;;;;;;;24.95;14.35;;;;;;;9.56;60.61;101383.53;5053395;28;20060;-60
2022/03/09 03:14:58;;;;;;;22.42;13.85;;;;;;;9.51;61.02;101389.09;5042064;28;20052;-65
2022/03/09 03:17:26;;;;;;;22.50;13.75;;;;;;;9.27;62.53;101384.66;5046459;28;20053;-65
2022/03/09 03:19:53;;;;;;;19.17;12.50;;;;;;;9.32;63.50;101388.19;5046493;28;20059;-61
2022/03/09 03:22:20;;;;;;;18.60;11.85;;;;;;;9.28;64.19;101389.03;5049386;28;20064;-62
2022/03/09 03:24:49;;;;;;;19.52;12.18;;;;;;;9.37;64.25;101387.28;5042022;28;20053;-62
2022/03/09 03:27:17;;;;;;;17.02;11.20;;;;;;;9.38;64.96;101388.94;5053820;28;20053;-62
2022/03/09 03:29:44;;;;;;;18.08;11.52;;;;;;;9.44;65.00;101387.78;5050281;28;20048;-61
2022/03/09 03:32:11;;;;;;;18.48;11.93;;;;;;;9.44;65.23;101380.38;5032084;28;20524;-61
2022/03/09 03:34:39;;;;;;;16.30;10.57;;;;;;;9.43;65.62;101380.66;5047197;28;20063;-61
2022/03/09 03:37:06;;;;;;;16.38;10.25;;;;;;;9.53;65.07;101375.88;5054067;28;20432;-61
2022/03/09 03:39:34;;;;;;;15.73;10.10;;;;;;;9.40;65.95;101372.97;5054511;28;20057;-65
2022/03/09 03:42:02;;;;;;;17.15;11.05;;;;;;;9.48;66.43;101381.44;5054513;28;20045;-61
2022/03/09 03:44:29;;;;;;;18.92;10.93;;;;;;;9.36;67.02;101382.91;5053282;28;20053;-61
2022/03/09 03:46:57;;;;;;;19.98;11.27;;;;;;;9.26;67.49;101383.81;5043556;28;20049;-66
2022/03/09 03:49:24;;;;;;;16.20;10.10;;;;;;;9.08;68.19;101379.03;5041350;28;20061;-65
2022/03/09 03:51:51;;;;;;;16.77;11.15;;;;;;;9.06;68.12;101371.09;5039027;28;20057;-66
2022/03/09 03:54:19;;;;;;;17.73;11.10;;;;;;;9.35;67.32;101373.00;5036518;28;20053;-62
2022/03/09 03:56:46;;;;;;;18.17;11.13;;;;;;;9.40;67.54;101371.03;5052650;28;20045;-64
2022/03/09 03:59:14;;;;;;;18.85;11.00;;;;;;;9.42;67.21;101373.50;5035412;28;20508;-61
2022/03/09 04:01:42;;;;;;;15.82;10.68;;;;;;;9.23;67.98;101376.16;5047688;28;20380;-61
2022/03/09 04:04:10;;;;;;;16.10;11.13;;;;;;;9.22;68.12;101379.19;5040046;28;20052;-61
2022/03/09 04:06:37;;;;;;;18.42;11.48;;;;;;;9.12;68.36;101388.34;5040298;28;20049;-61
2022/03/09 04:09:05;;;;;;;22.27;12.23;;;;;;;8.94;69.15;101389.84;5054491;28;20060;-61
2022/03/09 04:11:32;;;;;;;20.38;11.65;;;;;;;8.83;69.51;101393.78;5041375;28;20052;-61
2022/03/09 04:14:03;;;;;;;23.33;12.65;;;;;;;8.77;70.44;101399.63;5053475;28;20056;-61
2022/03/09 04:16:31;;;;;;;18.70;12.00;;;;;;;8.54;71.48;101398.34;5057124;28;20049;-62
2022/03/09 04:18:59;;;;;;;20.88;12.00;;;;;;;8.59;71.72;101392.03;5048071;28;20053;-65
2022/03/09 04:21:26;;;;;;;17.95;11.73;;;;;;;8.80;71.27;101394.34;5047444;28;20044;-65
2022/03/09 04:23:54;;;;;;;17.65;11.23;;;;;;;8.78;71.15;101385.59;5045733;28;20068;-65
2022/03/09 04:26:21;;;;;;;19.77;12.68;;;;;;;8.71;71.18;101379.59;5054970;28;20385;-65
2022/03/09 04:28:49;;;;;;;21.17;13.88;;;;;;;8.46;72.28;101384.41;5047817;28;20069;-65
2022/03/09 04:31:16;;;;;;;22.95;14.27;;;;;;;8.41;72.61;101385.25;5051689;28;20044;-65
2022/03/09 04:33:43;;;;;;;26.92;16.52;;;;;;;8.55;71.03;101391.78;5056182;28;20052;-65
2022/03/09 04:36:11;;;;;;;33.95;17.52;;;;;;;8.48;70.39;101399.50;5033333;28;20045;-64
2022/03/09 04:38:39;;;;;;;31.92;19.17;;;;;;;8.51;69.80;101395.34;5042719;28;20497;-62
2022/03/09 04:41:09;;;;;;;32.85;19.95;;;;;;;8.29;69.90;101395.75;5052907;28;20599;-65
2022/03/09 04:43:37;;;;;;;35.67;20.50;;;;;;;8.19;69.50;101387.53;5045558;28;20349;-65
2022/03/09 04:46:04;;;;;;;33.78;21.17;;;;;;;8.18;69.44;101391.38;5037615;28;20056;-65
2022/03/09 04:48:32;;;;;;;32.58;20.05;;;;;;;8.29;69.19;101392.19;5037843;28;20060;-65
2022/03/09 04:51:02;;;;;;;31.77;20.50;;;;;;;8.45;68.36;101405.56;5068877;28;20053;-62
2022/03/09 04:53:30;;;;;;;31.13;20.48;;;;;;;8.15;69.25;101391.94;5063845;28;20057;-62
2022/03/09 04:55:58;;;;;;;34.28;21.63;;;;;;;8.17;69.08;101408.94;5037800;28;20049;-64
2022/03/09 04:58:27;;;;;;;34.67;20.52;;;;;;;7.99;69.40;101404.06;5030647;28;20073;-61
2022/03/09 05:00:54;;;;;;;33.50;21.00;;;;;;;7.91;69.11;101408.19;5040567;28;20045;-61
2022/03/09 05:03:22;;;;;;;35.60;21.38;;;;;;;8.18;68.93;101409.75;5050175;28;20050;-61
2022/03/09 05:05:49;;;;;;;38.35;22.40;;;;;;;8.22;68.12;101408.09;5042968;28;20061;-65
2022/03/09 05:08:17;;;;;;;32.80;20.38;;;;;;;8.23;68.29;101416.03;5081747;28;20058;-64
2022/03/09 05:10:44;;;;;;;40.75;23.20;;;;;;;8.14;68.05;101409.53;5029886;28;20049;-64
2022/03/09 05:13:12;;;;;;;42.60;24.30;;;;;;;7.75;68.84;101414.84;5041019;28;20053;-65
2022/03/09 05:15:39;;;;;;;38.22;24.42;;;;;;;7.46;69.80;101418.47;5050923;28;20072;-64
2022/03/09 05:18:06;;;;;;;40.00;25.00;;;;;;;7.52;69.72;101431.03;5043612;28;20048;-64
2022/03/09 05:20:35;;;;;;;44.05;25.95;;;;;;;7.62;68.53;101429.13;5045128;28;20068;-63
2022/03/09 05:23:04;;;;;;;45.85;27.73;;;;;;;7.31;68.55;101432.16;5051954;28;20052;-62
2022/03/09 05:25:32;;;;;;;47.17;27.90;;;;;;;7.22;68.71;101442.03;5032220;28;20049;-62
2022/03/09 05:28:00;;;;;;;51.35;29.65;;;;;;;7.13;68.53;101435.47;5020171;28;20053;-61
2022/03/09 05:30:28;;;;;;;52.35;30.58;;;;;;;6.93;68.40;101451.84;5031815;28;20044;-63
2022/03/09 05:32:56;;;;;;;53.88;31.52;;;;;;;7.12;68.43;101444.75;5044129;28;20052;-63
2022/03/09 05:35:23;;;;;;;58.80;31.67;;;;;;;7.36;67.21;101449.41;5035204;28;20542;-60
2022/03/09 05:37:51;;;;;;;52.60;30.15;;;;;;;7.42;67.27;101450.25;5035473;28;20053;-61
2022/03/09 05:40:18;;;;;;;52.28;31.92;;;;;;;7.32;66.76;101453.78;5036102;28;20053;-61
2022/03/09 05:42:46;;;;;;;55.53;31.80;;;;;;;7.05;66.49;101463.38;5036500;28;20041;-62
2022/03/09 05:45:19;;;;;;;54.20;33.15;;;;;;;7.17;66.02;101466.66;5034964;28;20057;-62
2022/03/09 05:47:52;;;;;;;54.92;34.22;;;;;;;7.07;66.06;101472.97;5037277;28;20058;-62
2022/03/09 05:50:19;;;;;;;53.67;33.15;;;;;;;6.76;66.41;101483.03;5042119;28;20441;-66
2022/03/09 05:52:47;;;;;;;52.03;32.33;;;;;;;6.58;66.70;101480.78;5033508;28;20045;-61
2022/03/09 05:55:14;;;;;;;54.53;32.33;;;;;;;6.42;67.75;101489.19;5030904;28;20049;-61
2022/03/09 05:57:46;;;;;;;51.58;31.40;;;;;;;6.60;67.23;101489.56;5032394;28;20064;-62
2022/03/09 06:00:15;;;;;;;52.55;31.00;;;;;;;6.61;66.59;101484.88;5036532;28;20064;-61
2022/03/09 06:02:42;;;;;;;58.58;32.08;;;;;;;6.30;67.73;101483.97;5031205;28;20048;-62
2022/03/09 06:05:14;;;;;;;53.53;31.40;;;;;;;6.18;68.05;101479.78;5030243;28;20054;-63
2022/03/09 06:07:42;;;;;;;50.65;30.95;;;;;;;6.11;67.96;101479.19;5034036;28;20052;-63
2022/03/09 06:10:10;;;;;;;56.97;33.58;;;;;;;6.12;68.26;101475.41;5034186;28;20053;-63
2022/03/09 06:12:37;;;;;;;58.28;30.77;;;;;;;6.21;68.20;101481.97;5063782;28;20061;-63
2022/03/09 06:15:05;;;;;;;55.47;30.88;;;;;;;6.28;68.18;101488.88;5033259;28;20504;-64
2022/03/09 06:17:45;;;;;;;58.40;31.42;;;;;;;6.07;68.61;101489.84;5033583;28;20053;-62
2022/03/09 06:20:17;;;;;;;52.05;30.27;;;;;;;6.23;68.29;101488.84;5034702;28;20049;-63
2022/03/09 06:22:45;;;;;;;49.97;30.70;;;;;;;6.53;67.78;101489.00;5034943;28;20057;-63
2022/03/09 06:25:16;;;;;;;56.55;31.25;;;;;;;6.27;67.85;101484.50;5033346;28;20076;-64
2022/03/09 06:27:49;;;;;;;54.95;31.98;;;;;;;6.21;68.03;101493.75;5033397;28;20049;-64
2022/03/09 06:30:23;;;;;;;52.83;30.08;;;;;;;6.32;68.25;101498.19;5034984;28;20041;-63
2022/03/09 06:32:51;;;;;;;54.03;30.17;;;;;;;6.11;68.35;101499.19;5035651;28;20061;-64
2022/03/09 06:35:18;;;;;;;65.18;30.23;;;;;;;5.87;69.40;101502.56;5026382;28;20507;-62
2022/03/09 06:37:46;;;;;;;49.50;29.92;;;;;;;5.83;69.78;101502.28;5032930;28;20049;-64
2022/03/09 06:40:14;;;;;;;52.38;30.08;;;;;;;6.10;69.48;101508.44;5034819;28;20046;-65
2022/03/09 06:42:41;;;;;;;55.63;29.75;;;;;;;5.89;69.53;101509.44;5032874;28;20061;-66
2022/03/09 06:45:09;;;;;;;52.03;28.48;;;;;;;6.12;69.27;101508.22;5032280;28;20052;-63
2022/03/09 06:47:38;;;;;;;50.58;28.63;;;;;;;6.06;69.23;101515.56;5034033;28;20060;-62
2022/03/09 06:50:08;;;;;;;54.20;29.50;;;;;;;6.24;69.05;101520.56;5034173;28;20121;-61
2022/03/09 06:52:36;;;;;;;48.40;28.77;;;;;;;6.22;68.94;101513.72;5033589;28;20065;-62
2022/03/09 06:55:04;;;;;;;57.97;31.67;;;;;;;6.29;68.60;101509.69;5035675;28;20054;-64
2022/03/09 06:57:31;;;;;;;56.63;31.33;;;;;;;6.34;68.33;101506.97;5034654;28;20060;-65
2022/03/09 07:00:14;;;;;;;51.33;31.20;;;;;;;6.25;68.92;101515.94;5033566;28;20465;-65
2022/03/09 07:02:43;;;;;;;55.13;30.77;;;;;;;6.32;68.77;101520.09;5034084;28;20543;-65
2022/03/09 07:05:10;;;;;;;50.90;31.75;;;;;;;6.39;68.28;101528.88;5034782;28;20053;-66
2022/03/09 07:07:38;;;;;;;49.13;29.33;;;;;;;6.60;68.27;101527.06;5035718;28;20059;-67
2022/03/09 07:10:10;;;;;;;57.15;30.52;;;;;;;6.35;68.91;101527.75;5034194;28;20057;-64
2022/03/09 07:12:42;;;;;;;55.15;30.75;;;;;;;6.62;68.76;101530.34;5018040;28;20056;-64
2022/03/09 07:15:10;;;;;;;48.17;28.95;;;;;;;6.66;68.59;101536.91;5033763;28;20055;-65
2022/03/09 07:17:38;;;;;;;45.47;28.33;;;;;;;6.72;68.67;101538.59;5066654;28;20052;-65
2022/03/09 07:20:06;;;;;;;59.70;32.03;;;;;;;6.94;68.94;101541.94;5065207;28;20504;-63
2022/03/09 07:22:42;;;;;;;52.53;29.83;;;;;;;7.06;68.58;101548.00;5032532;28;20049;-63
2022/03/09 07:25:10;;;;;;;44.92;27.17;;;;;;;7.08;68.63;101545.81;5032705;28;20053;-63
2022/03/09 07:27:39;;;;;;;50.50;27.95;;;;;;;7.24;68.28;101550.25;5033330;28;20042;-64
2022/03/09 07:30:08;;;;;;;45.17;26.45;;;;;;;7.36;68.13;101555.47;5033494;28;20068;-65
2022/03/09 07:32:35;;;;;;;40.20;26.20;;;;;;;7.28;68.83;101558.75;5046914;28;20049;-63
2022/03/09 07:35:19;;;;;;;46.10;24.85;;;;;;;7.21;69.20;101553.53;5034212;28;20052;-64
2022/03/09 07:37:46;;;;;;;41.65;25.67;;;;;;;7.31;69.55;101550.81;5033179;28;20049;-64
2022/03/09 07:40:13;;;;;;;41.58;24.88;;;;;;;7.45;69.30;101556.59;5034403;28;20045;-65
2022/03/09 07:42:41;;;;;;;38.13;23.98;;;;;;;7.55;69.67;101562.09;5033542;28;20037;-64
2022/03/09 07:45:08;;;;;;;39.00;23.45;;;;;;;7.44;69.98;101550.31;5032917;28;20053;-64
2022/03/09 07:47:36;;;;;;;40.03;25.73;;;;;;;7.50;70.19;101560.16;5033657;28;20073;-65
2022/03/09 07:50:07;;;;;;;38.00;24.30;;;;;;;7.69;70.10;101553.03;5032616;28;20054;-64
2022/03/09 07:52:35;;;;;;;37.90;23.80;;;;;;;7.55;70.21;101562.09;5030081;28;20053;-66
2022/03/09 07:55:04;;;;;;;42.30;24.15;;;;;;;7.58;70.73;101564.28;5032175;28;20045;-65
2022/03/09 07:57:32;;;;;;;39.95;25.27;;;;;;;7.75;70.71;101568.41;5033092;28;20054;-65
2022/03/09 08:00:00;;;;;;;38.05;23.35;;;;;;;7.60;71.29;101571.13;5037888;28;20045;-66
2022/03/09 08:02:38;;;;;;;42.88;22.85;;;;;;;7.76;71.57;101570.03;5037925;28;20045;-66
2022/03/09 08:05:07;;;;;;;37.35;21.65;;;;;;;8.01;70.55;101574.72;5040312;28;20056;-66
2022/03/09 08:07:34;;;;;;;34.55;21.25;;;;;;;8.12;70.12;101568.13;5041172;28;20045;-65
2022/03/09 08:10:02;;;;;;;35.25;20.83;;;;;;;8.14;70.26;101582.38;5038235;28;20489;-65
2022/03/09 08:12:29;;;;;;;36.28;21.85;;;;;;;8.26;69.75;101576.63;5040566;28;20052;-65
2022/03/09 08:14:57;;;;;;;37.00;21.65;;;;;;;8.21;70.43;101577.41;5038858;28;20405;-65
2022/03/09 08:17:24;;;;;;;39.47;20.63;;;;;;;8.22;70.47;101583.72;5029274;28;20050;-63
2022/03/09 08:19:53;;;;;;;33.97;20.00;;;;;;;8.21;70.43;101571.91;5037507;28;20045;-65
2022/03/09 08:22:21;;;;;;;39.45;20.88;;;;;;;8.57;70.25;101579.03;5038734;28;20049;-70
2022/03/09 08:24:49;;;;;;;40.35;20.42;;;;;;;8.44;70.41;101585.09;5036421;28;20068;-70
2022/03/09 08:27:16;;;;;;;32.35;21.00;;;;;;;8.73;69.97;101583.38;5033645;28;20060;-64
2022/03/09 08:29:44;;;;;;;33.03;19.92;;;;;;;8.69;69.78;101576.78;5035794;28;20053;-66
2022/03/09 08:32:13;;;;;;;30.27;19.93;;;;;;;8.84;69.43;101581.38;5034293;28;20049;-65
2022/03/09 08:34:40;;;;;;;40.92;20.63;;;;;;;8.84;69.70;101575.91;5037219;28;20052;-65
2022/03/09 08:37:07;;;;;;;30.30;18.60;;;;;;;8.85;70.36;101585.78;5036931;28;20050;-65
2022/03/09 08:39:35;;;;;;;34.97;22.08;;;;;;;8.94;70.57;101581.38;5037439;28;20072;-64
2022/03/09 08:42:02;;;;;;;40.90;27.25;;;;;;;9.01;69.93;101585.44;5036745;28;20045;-66
2022/03/09 08:44:40;;;;;;;29.73;17.80;;;;;;;9.03;70.21;101580.47;5037499;28;20061;-65
2022/03/09 08:47:08;;;;;;;31.52;19.63;;;;;;;9.18;70.17;101584.25;5032514;28;20068;-65
2022/03/09 08:49:39;;;;;;;35.42;19.27;;;;;;;9.17;70.51;101588.13;5068580;28;20054;-67
2022/03/09 08:52:08;;;;;;;28.00;17.00;;;;;;;9.38;70.49;101581.41;5035214;28;20068;-68
2022/03/09 08:54:36;;;;;;;29.35;16.92;;;;;;;9.38;71.13;101586.91;5042191;28;20053;-67
2022/03/09 08:57:05;;;;;;;23.25;15.82;;;;;;;9.65;71.00;101587.28;5036136;28;20049;-67
2022/03/09 08:59:33;;;;;;;26.38;15.43;;;;;;;9.41;72.47;101587.16;5033713;28;20052;-69
2022/03/09 09:02:00;;;;;;;27.15;16.10;;;;;;;9.45;72.67;101584.66;5044224;28;20049;-67
2022/03/09 09:04:28;;;;;;;26.70;15.23;;;;;;;9.57;72.56;101583.19;5033501;28;20046;-68
2022/03/09 09:06:56;;;;;;;23.70;14.80;;;;;;;9.79;71.97;101586.34;5036083;28;20496;-67
2022/03/09 09:09:26;;;;;;;24.77;14.63;;;;;;;9.79;72.00;101583.59;5037412;28;20045;-68
2022/03/09 09:11:54;;;;;;;24.98;13.77;;;;;;;9.81;72.53;101595.13;5035635;28;20054;-66
2022/03/09 09:14:22;;;;;;;22.38;13.65;;;;;;;10.08;72.29;101591.88;5035936;28;20493;-67
2022/03/09 09:16:49;;;;;;;22.88;13.85;;;;;;;10.14;72.49;101577.81;5036813;28;20037;-68
2022/03/09 09:19:17;;;;;;;28.85;15.55;;;;;;;10.39;71.55;101586.94;5018592;28;20053;-68
2022/03/09 09:21:45;;;;;;;23.73;14.13;;;;;;;10.09;72.31;101577.84;5036055;28;20049;-67
2022/03/09 09:24:13;;;;;;;19.65;13.27;;;;;;;10.22;72.54;101573.59;5036757;28;20500;-67
2022/03/09 09:26:44;;;;;;;19.30;11.93;;;;;;;10.23;72.83;101573.31;5036535;28;20054;-68
2022/03/09 09:29:32;;;;;;;22.92;12.60;;;;;;;10.35;72.29;101570.19;5035050;28;20049;-68
2022/03/09 09:32:00;;;;;;;19.58;10.48;;;;;;;10.31;73.09;101569.09;5036346;28;20362;-67
2022/03/09 09:34:27;;;;;;;16.52;9.65;;;;;;;10.28;73.05;101577.97;5035226;28;20475;-67
2022/03/09 09:36:55;;;;;;;15.00;9.05;;;;;;;10.24;73.35;101563.13;5036572;28;20049;-68
2022/03/09 09:39:22;;;;;;;16.38;9.32;;;;;;;10.23;73.47;101563.41;5034720;28;20406;-70
2022/03/09 09:41:52;;;;;;;16.50;9.18;;;;;;;10.27;73.86;101559.78;5034179;28;20045;-68
2022/03/09 09:44:24;;;;;;;15.90;8.05;;;;;;;10.42;73.05;101558.81;5042373;28;20040;-68
2022/03/09 09:46:53;;;;;;;17.35;8.13;;;;;;;10.46;73.15;101548.84;5031061;28;20045;-68
2022/03/09 09:49:24;;;;;;;16.48;7.97;;;;;;;10.64;72.34;101556.34;5032638;28;20053;-69
2022/03/09 09:51:53;;;;;;;16.35;8.15;;;;;;;10.61;72.56;101557.78;5033800;28;20041;-68
2022/03/09 09:54:23;;;;;;;17.37;8.43;;;;;;;10.74;72.43;101550.72;5036448;28;20052;-68
2022/03/09 09:56:52;;;;;;;16.80;7.85;;;;;;;10.82;72.22;101550.06;5066240;28;20050;-67
2022/03/09 09:59:19;;;;;;;18.05;7.43;;;;;;;10.90;71.46;101557.66;5035590;28;20060;-69
2022/03/09 10:01:47;;;;;;;14.18;7.38;;;;;;;10.97;71.32;101545.19;5036537;28;20752;-68
2022/03/09 10:04:15;;;;;;;15.95;7.20;;;;;;;11.11;70.74;101540.56;5035929;28;20061;-71
2022/03/09 10:06:43;;;;;;;15.27;7.07;;;;;;;11.34;69.99;101544.38;5036766;28;20405;-65
2022/03/09 10:09:12;;;;;;;13.82;6.60;;;;;;;11.27;69.17;101541.19;5024649;28;20053;-69
2022/03/09 10:11:46;;;;;;;13.07;6.13;;;;;;;11.38;69.19;101539.09;5028265;28;20057;-68
2022/03/09 10:14:14;;;;;;;11.73;5.80;;;;;;;11.32;69.01;101541.09;5030558;28;20057;-68
2022/03/09 10:17:01;;;;;;;13.05;6.60;;;;;;;11.45;68.89;101539.53;5035480;28;20060;-68
2022/03/09 10:19:37;;;;;;;16.13;8.32;;;;;;;11.53;68.48;101541.63;5034959;28;20064;-69
2022/03/09 10:22:45;;;;;;;13.57;8.25;;;;;;;11.50;67.87;101540.28;5037354;28;20147;-68
2022/03/09 10:25:25;;;;;;;11.38;7.38;;;;;;;11.51;68.28;101544.66;5042530;28;20046;-68
2022/03/09 10:27:54;;;;;;;13.85;6.90;;;;;;;11.71;67.54;101540.81;5059272;28;20053;-68
2022/03/09 10:30:33;;;;;;;10.93;5.82;;;;;;;11.72;67.33;101529.47;5039577;28;20061;-69
2022/03/09 10:33:08;;;;;;;14.68;5.85;;;;;;;11.94;65.97;101526.06;5032739;28;20042;-68
2022/03/09 10:35:49;;;;;;;13.95;5.45;;;;;;;11.55;66.62;101529.16;5028590;28;20053;-67
2022/03/09 10:38:16;;;;;;;12.25;5.13;;;;;;;11.69;66.65;101540.28;5034671;28;20056;-67
2022/03/09 10:40:49;;;;;;;12.13;5.13;;;;;;;11.92;65.77;101520.84;5037110;28;20144;-68
2022/03/09 10:43:21;;;;;;;11.75;4.25;;;;;;;11.94;65.04;101520.56;5036070;28;20224;-67
2022/03/09 10:46:11;;;;;;;13.30;5.45;;;;;;;11.83;65.39;101524.59;5034499;28;20056;-67
2022/03/09 10:48:57;;;;;;;12.93;4.47;;;;;;;11.83;65.09;101519.06;5039889;28;20074;-66
2022/03/09 10:51:29;;;;;;;12.32;4.90;;;;;;;12.06;64.36;101518.13;5034235;28;20049;-65
2022/03/09 10:53:57;;;;;;;11.00;4.13;;;;;;;12.01;64.30;101520.97;5032767;28;20053;-65
2022/03/09 10:56:24;;;;;;;9.02;4.10;;;;;;;12.31;63.69;101514.88;5036374;28;20045;-66
2022/03/09 10:58:51;;;;;;;12.00;4.88;;;;;;;12.48;63.15;101525.34;5037393;28;20511;-65
2022/03/09 11:01:20;;;;;;;14.00;5.43;;;;;;;12.67;62.43;101521.34;5033907;28;20056;-65
2022/03/09 11:03:47;;;;;;;14.00;5.75;;;;;;;12.74;62.06;101526.47;5034206;28;20053;-66
2022/03/09 11:06:17;;;;;;;11.25;6.15;;;;;;;12.58;61.97;101531.47;5033466;28;20060;-66
2022/03/09 11:08:44;;;;;;;15.43;6.27;;;;;;;12.61;61.50;101522.56;5034238;28;20497;-65
2022/03/09 11:11:14;;;;;;;13.55;5.57;;;;;;;12.66;61.70;101519.69;5033146;28;20408;-66
2022/03/09 11:13:41;;;;;;;10.60;5.90;;;;;;;12.69;61.75;101530.16;5032726;28;20053;-66
2022/03/09 11:16:10;;;;;;;11.35;6.45;;;;;;;12.47;61.96;101530.03;5034547;28;20412;-66
2022/03/09 11:18:38;;;;;;;15.02;6.60;;;;;;;12.70;61.62;101519.91;5027656;28;20057;-66
2022/03/09 11:21:08;;;;;;;13.60;7.20;;;;;;;13.04;60.81;101512.81;5027268;28;20765;-65
2022/03/09 11:23:38;;;;;;;10.23;6.25;;;;;;;13.01;60.70;101516.19;5033963;28;20054;-65
2022/03/09 11:26:21;;;;;;;13.38;6.10;;;;;;;13.12;60.34;101509.34;5032504;28;20504;-67
2022/03/09 11:28:59;;;;;;;13.25;6.38;;;;;;;12.95;60.33;101509.13;5012700;28;20042;-65